Time;durP1;ratioP1;P1;durP2;ratioP2;P2;SDS_P1;SDS_P2;PMS_P1;PMS_P2;Temp;Humidity;BMP_temperature;BMP_pressure;BME280_temperature;BME280_humidity;BME280_pressure;Samples;Min_cycle;Max_cycle;Signal;HPM_P1;HPM_P2
2022/05/24 00:01:58;;;;;;;7.70;7.10;;;23.00;99.90;;;;;;5032439;28;20445;-64
2022/05/24 00:04:25;;;;;;;5.40;5.00;;;22.90;99.90;;;;;;5032705;28;20441;-63
2022/05/24 00:06:51;;;;;;;4.73;4.43;;;22.90;99.90;;;;;;5032419;28;20461;-62
2022/05/24 00:09:18;;;;;;;3.40;3.30;;;22.90;99.90;;;;;;5032554;28;20454;-64
2022/05/24 00:11:45;;;;;;;3.83;3.70;;;23.00;99.90;;;;;;5032258;28;20449;-63
2022/05/24 00:14:13;;;;;;;4.80;4.57;;;22.90;99.90;;;;;;5032394;28;20481;-62
2022/05/24 00:16:39;;;;;;;4.70;4.40;;;23.00;99.90;;;;;;5032291;28;20465;-62
2022/05/24 00:19:06;;;;;;;4.67;4.47;;;23.00;99.90;;;;;;5032195;28;20443;-63
2022/05/24 00:21:33;;;;;;;4.47;4.27;;;22.90;99.90;;;;;;5032166;28;20446;-63
2022/05/24 00:24:00;;;;;;;4.83;4.57;;;23.00;99.90;;;;;;5032337;28;20471;-62
2022/05/24 00:26:30;;;;;;;4.53;4.27;;;23.00;99.90;;;;;;5031087;28;20562;-62
2022/05/24 00:28:57;;;;;;;4.20;4.00;;;23.00;99.90;;;;;;5032067;28;20455;-64
2022/05/24 00:31:25;;;;;;;3.97;3.77;;;22.90;99.90;;;;;;5031928;28;20452;-63
2022/05/24 00:33:52;;;;;;;3.93;3.73;;;23.00;99.90;;;;;;5032050;28;20834;-61
2022/05/24 00:36:18;;;;;;;3.60;3.50;;;23.00;99.90;;;;;;5032050;28;20464;-62
2022/05/24 00:38:45;;;;;;;4.53;4.20;;;23.00;99.90;;;;;;5031702;28;20472;-63
2022/05/24 00:41:24;;;;;;;4.03;3.83;;;22.90;99.90;;;;;;5032069;28;20445;-62
2022/05/24 00:43:56;;;;;;;4.33;3.93;;;23.00;99.90;;;;;;5012268;28;20999;-64
2022/05/24 00:46:27;;;;;;;3.90;3.70;;;23.00;99.90;;;;;;5012172;28;20477;-63
2022/05/24 00:48:59;;;;;;;4.57;4.33;;;23.00;99.90;;;;;;5012036;28;20442;-62
2022/05/24 00:51:31;;;;;;;4.07;3.87;;;22.90;99.90;;;;;;5027001;28;20441;-62
2022/05/24 00:53:58;;;;;;;4.03;3.73;;;23.00;99.90;;;;;;5031725;28;20488;-64
2022/05/24 00:56:42;;;;;;;3.57;3.37;;;23.00;99.90;;;;;;5031693;28;20469;-61
2022/05/24 00:59:14;;;;;;;4.07;3.87;;;23.00;99.90;;;;;;5031665;28;20522;-62
2022/05/24 01:01:44;;;;;;;4.23;4.00;;;22.90;99.90;;;;;;5031544;28;20450;-62
2022/05/24 01:04:13;;;;;;;3.83;3.63;;;23.00;99.90;;;;;;5031788;28;20495;-62
2022/05/24 01:06:41;;;;;;;4.77;4.57;;;23.00;99.90;;;;;;5031683;28;20465;-63
2022/05/24 01:09:10;;;;;;;5.20;4.90;;;23.00;99.90;;;;;;5031491;28;20481;-64
2022/05/24 01:11:43;;;;;;;4.90;4.60;;;22.90;99.90;;;;;;5031331;28;20453;-62
2022/05/24 01:14:11;;;;;;;4.67;4.37;;;22.90;99.90;;;;;;5031456;28;20484;-63
2022/05/24 01:16:38;;;;;;;4.77;4.57;;;22.90;99.90;;;;;;5031346;28;20461;-64
2022/05/24 01:19:10;;;;;;;4.80;4.50;;;22.90;99.90;;;;;;5030111;28;20456;-61
2022/05/24 01:21:39;;;;;;;4.90;4.60;;;22.80;99.90;;;;;;5031535;28;20445;-64
2022/05/24 01:24:15;;;;;;;5.17;4.87;;;22.90;99.90;;;;;;5031457;28;20441;-63
2022/05/24 01:26:50;;;;;;;5.07;4.87;;;22.90;99.90;;;;;;5030923;28;20480;-63
2022/05/24 01:29:17;;;;;;;4.80;4.40;;;22.80;99.90;;;;;;5027826;28;20518;-64
2022/05/24 01:37:28;;;;;;;7.13;6.67;;;22.80;99.90;;;;;;4990276;28;20467;-63
2022/05/24 01:39:58;;;;;;;5.43;5.10;;;22.60;99.90;;;;;;5026033;28;20464;-63
2022/05/24 01:42:27;;;;;;;6.13;5.83;;;22.70;99.90;;;;;;5035293;28;20445;-62
2022/05/24 01:45:03;;;;;;;6.47;5.97;;;22.60;99.90;;;;;;5035304;28;20440;-63
2022/05/24 01:47:31;;;;;;;7.40;6.90;;;22.60;99.90;;;;;;5015307;28;20493;-64
2022/05/24 01:50:04;;;;;;;6.73;6.33;;;22.50;99.90;;;;;;5015425;28;20450;-61
2022/05/24 01:52:37;;;;;;;8.40;6.77;;;22.50;99.90;;;;;;5015479;28;20452;-64
2022/05/24 01:55:08;;;;;;;6.30;5.90;;;22.40;99.90;;;;;;5029045;28;20476;-63
2022/05/24 01:57:41;;;;;;;6.10;5.60;;;22.50;99.90;;;;;;5034835;28;20468;-65
2022/05/24 02:00:12;;;;;;;6.70;6.10;;;22.40;99.90;;;;;;5035154;28;20441;-63
2022/05/24 02:02:38;;;;;;;5.60;5.30;;;22.40;99.90;;;;;;5035031;28;20818;-63
2022/05/24 02:05:06;;;;;;;6.80;6.33;;;22.40;99.90;;;;;;5034601;28;20804;-62
2022/05/24 02:07:33;;;;;;;5.83;5.50;;;22.40;99.90;;;;;;5034499;28;20465;-64
2022/05/24 02:10:00;;;;;;;5.77;5.30;;;22.40;99.90;;;;;;5034795;28;20441;-63
2022/05/24 02:12:31;;;;;;;4.47;4.17;;;22.40;99.90;;;;;;5034731;28;20811;-63
2022/05/24 02:15:02;;;;;;;5.70;5.30;;;22.40;99.90;;;;;;5034472;28;20477;-63
2022/05/24 02:17:33;;;;;;;5.70;5.00;;;22.40;99.90;;;;;;5034457;28;20486;-64
2022/05/24 02:20:03;;;;;;;5.13;4.80;;;22.40;99.90;;;;;;5034705;28;20444;-63
2022/05/24 02:22:31;;;;;;;4.50;4.23;;;22.30;99.90;;;;;;5034662;28;20823;-61
2022/05/24 02:24:59;;;;;;;5.33;4.93;;;22.40;99.90;;;;;;5034319;28;20542;-64
2022/05/24 02:27:28;;;;;;;4.70;4.50;;;22.30;99.90;;;;;;5034132;28;20856;-63
2022/05/24 02:29:55;;;;;;;5.27;4.90;;;22.30;99.60;;;;;;5034368;28;20452;-63
2022/05/24 02:32:24;;;;;;;4.93;4.60;;;22.30;99.30;;;;;;5034512;28;20449;-63
2022/05/24 02:34:51;;;;;;;4.50;4.10;;;22.20;99.10;;;;;;5033999;28;20813;-63
2022/05/24 02:37:19;;;;;;;5.50;4.97;;;22.20;98.90;;;;;;5034044;28;20928;-62
2022/05/24 02:42:32;;;;;;;4.20;4.00;;;22.20;98.60;;;;;;5034425;28;20424;-61
2022/05/24 02:44:58;;;;;;;4.20;3.87;;;22.20;98.60;;;;;;5033975;28;20445;-63
2022/05/24 02:47:26;;;;;;;4.47;4.20;;;22.20;98.60;;;;;;5033855;28;20461;-62
2022/05/24 02:49:53;;;;;;;4.23;4.00;;;22.20;98.50;;;;;;5032994;28;20460;-60
2022/05/24 02:52:20;;;;;;;4.10;3.80;;;22.20;98.40;;;;;;5034109;28;20488;-61
2022/05/24 02:54:46;;;;;;;4.17;3.97;;;22.20;98.20;;;;;;5033618;28;20484;-62
2022/05/24 02:57:13;;;;;;;4.23;3.90;;;22.20;98.00;;;;;;5033772;28;20465;-63
2022/05/24 02:59:40;;;;;;;4.27;4.00;;;22.20;98.00;;;;;;5033973;28;20456;-63
2022/05/24 03:02:07;;;;;;;4.13;3.93;;;22.20;97.70;;;;;;5033553;28;20452;-63
2022/05/24 03:04:36;;;;;;;3.47;3.30;;;22.20;97.60;;;;;;5033797;28;20452;-62
2022/05/24 03:09:47;;;;;;;3.77;3.57;;;22.20;96.70;;;;;;5033780;28;20962;-63
2022/05/24 03:14:58;;;;;;;3.50;3.30;;;22.10;96.50;;;;;;5033751;28;20476;-61
2022/05/24 03:17:26;;;;;;;4.17;3.87;;;22.10;96.10;;;;;;5033341;28;20465;-62
2022/05/24 03:19:54;;;;;;;3.70;3.50;;;22.10;95.80;;;;;;5033510;28;20445;-61
2022/05/24 03:22:21;;;;;;;3.50;3.30;;;22.10;95.90;;;;;;5033167;28;20445;-63
2022/05/24 03:24:47;;;;;;;3.80;3.40;;;22.20;95.70;;;;;;5033114;28;20948;-63
2022/05/24 03:27:14;;;;;;;3.83;3.67;;;22.20;95.40;;;;;;5033098;28;20481;-63
2022/05/24 03:29:42;;;;;;;4.97;4.67;;;22.20;95.60;;;;;;5033312;28;20437;-64
2022/05/24 03:32:10;;;;;;;3.93;3.50;;;22.20;95.30;;;;;;5032960;28;20813;-63
2022/05/24 03:34:38;;;;;;;3.20;3.00;;;22.30;95.30;;;;;;5033173;28;20483;-62
2022/05/24 03:37:07;;;;;;;3.40;3.20;;;22.30;95.10;;;;;;5032858;28;20831;-62
2022/05/24 03:39:34;;;;;;;3.37;3.07;;;22.20;95.00;;;;;;5033047;28;20444;-64
2022/05/24 03:42:01;;;;;;;3.10;3.00;;;22.30;95.10;;;;;;5033150;28;20441;-62
2022/05/24 03:44:28;;;;;;;4.50;4.20;;;22.20;94.80;;;;;;5032627;28;20449;-61
2022/05/24 03:46:55;;;;;;;3.57;3.47;;;22.20;94.60;;;;;;5032741;28;20464;-62
2022/05/24 03:49:22;;;;;;;4.17;3.83;;;22.10;94.40;;;;;;5032895;28;20445;-61
2022/05/24 03:51:49;;;;;;;3.20;3.10;;;22.20;94.60;;;;;;5032624;28;20453;-63
2022/05/24 03:54:18;;;;;;;3.73;3.53;;;22.10;94.50;;;;;;5032740;28;20954;-63
2022/05/24 03:59:25;;;;;;;4.10;3.90;;;22.20;94.40;;;;;;5031717;28;20436;-61
2022/05/24 04:01:52;;;;;;;3.60;3.40;;;22.10;94.10;;;;;;5032322;28;20447;-64
2022/05/24 04:04:19;;;;;;;3.80;3.60;;;22.10;93.80;;;;;;5031813;28;20460;-62
2022/05/24 04:06:46;;;;;;;3.47;3.20;;;22.10;93.90;;;;;;5032359;28;20477;-63
2022/05/24 04:09:13;;;;;;;3.87;3.73;;;22.10;93.80;;;;;;5032500;28;20527;-62
2022/05/24 04:11:42;;;;;;;3.90;3.70;;;22.10;93.70;;;;;;5032296;28;20445;-62
2022/05/24 04:14:09;;;;;;;4.00;3.70;;;22.10;93.70;;;;;;5032338;28;20487;-63
2022/05/24 04:16:36;;;;;;;3.10;3.00;;;22.00;93.50;;;;;;5032577;28;20479;-59
2022/05/24 04:19:03;;;;;;;2.97;2.87;;;22.00;93.20;;;;;;5032236;28;20914;-62
2022/05/24 04:21:30;;;;;;;4.10;3.57;;;22.00;93.10;;;;;;5032091;28;20459;-61
2022/05/24 04:23:57;;;;;;;4.63;4.23;;;22.00;93.10;;;;;;5032399;28;20445;-63
2022/05/24 04:26:24;;;;;;;3.50;3.30;;;22.00;92.60;;;;;;5032680;28;20483;-65
2022/05/24 04:28:52;;;;;;;3.97;3.63;;;22.00;92.60;;;;;;5031932;28;20449;-63
2022/05/24 04:31:19;;;;;;;3.83;3.63;;;22.00;92.70;;;;;;5031957;28;20948;-64
2022/05/24 04:33:45;;;;;;;3.80;3.50;;;22.10;92.80;;;;;;5032007;28;20445;-65
2022/05/24 04:36:12;;;;;;;4.87;4.50;;;22.00;92.60;;;;;;5031988;28;20471;-64
2022/05/24 04:38:39;;;;;;;6.10;5.47;;;21.90;93.80;;;;;;5031935;28;20804;-64
2022/05/24 04:43:49;;;;;;;8.10;4.70;;;21.90;96.50;;;;;;5032026;28;20416;-64
2022/05/24 04:46:18;;;;;;;4.80;4.40;;;21.90;96.10;;;;;;5031257;28;20996;-66
2022/05/24 04:48:44;;;;;;;5.47;4.97;;;22.00;96.50;;;;;;5031099;28;20445;-67
2022/05/24 04:51:12;;;;;;;7.30;4.73;;;22.00;96.10;;;;;;5030467;28;20449;-66
2022/05/24 04:53:38;;;;;;;6.30;4.10;;;22.00;96.20;;;;;;5031918;28;20441;-66
2022/05/24 04:56:05;;;;;;;4.93;4.40;;;22.00;95.60;;;;;;5031670;28;20492;-66
2022/05/24 04:58:32;;;;;;;4.30;3.97;;;22.00;95.30;;;;;;5031607;28;20456;-66
2022/05/24 05:00:59;;;;;;;4.93;3.87;;;22.10;95.30;;;;;;5031679;28;20453;-66
2022/05/24 05:03:27;;;;;;;4.20;3.90;;;22.10;95.10;;;;;;5031661;28;20941;-66
2022/05/24 05:05:54;;;;;;;7.50;5.50;;;22.10;94.70;;;;;;5031509;28;20476;-66
2022/05/24 05:08:21;;;;;;;4.60;4.33;;;22.10;94.50;;;;;;5031459;28;20448;-66
2022/05/24 05:10:48;;;;;;;4.30;3.97;;;22.10;94.30;;;;;;5031542;28;20963;-66
2022/05/24 05:13:16;;;;;;;3.37;3.13;;;22.10;94.20;;;;;;5030982;28;20452;-66
2022/05/24 05:15:43;;;;;;;3.53;3.43;;;22.10;94.00;;;;;;5031508;28;20515;-66
2022/05/24 05:18:12;;;;;;;4.43;4.03;;;22.10;93.90;;;;;;5031207;28;20444;-66
2022/05/24 05:20:41;;;;;;;4.17;3.80;;;22.10;93.80;;;;;;5031454;28;20522;-66
2022/05/24 05:23:09;;;;;;;3.70;3.40;;;22.10;93.70;;;;;;5031434;28;20887;-66
2022/05/24 05:25:35;;;;;;;3.30;3.20;;;22.10;93.70;;;;;;5031438;28;20476;-67
2022/05/24 05:28:03;;;;;;;3.10;3.00;;;22.10;93.70;;;;;;5030988;28;20980;-66
2022/05/24 05:33:14;;;;;;;3.77;3.40;;;22.10;93.40;;;;;;5031443;28;21055;-66
2022/05/24 05:35:43;;;;;;;3.37;3.17;;;22.10;93.40;;;;;;5031350;28;20480;-66
2022/05/24 05:38:10;;;;;;;3.30;3.20;;;22.10;93.30;;;;;;5031063;28;20812;-66
2022/05/24 05:40:37;;;;;;;4.23;3.73;;;22.10;93.20;;;;;;5031343;28;20816;-66
2022/05/24 05:43:04;;;;;;;3.40;3.17;;;22.10;93.10;;;;;;5031286;28;20447;-66
2022/05/24 05:45:31;;;;;;;3.20;3.10;;;22.10;93.00;;;;;;5031232;28;20445;-66
2022/05/24 05:47:58;;;;;;;4.13;2.83;;;22.10;92.80;;;;;;5030889;28;20469;-66
2022/05/24 05:50:25;;;;;;;3.20;3.10;;;22.10;92.80;;;;;;5031192;28;20449;-66
2022/05/24 05:52:53;;;;;;;2.90;2.80;;;22.10;92.70;;;;;;5031132;28;20790;-66
2022/05/24 05:55:20;;;;;;;3.20;3.00;;;22.10;92.50;;;;;;5031138;28;20489;-66
2022/05/24 05:57:47;;;;;;;3.73;3.50;;;22.10;92.40;;;;;;5030852;28;20555;-67
2022/05/24 06:00:15;;;;;;;3.00;2.80;;;22.10;92.40;;;;;;5031127;28;20449;-67
2022/05/24 06:02:42;;;;;;;3.30;3.10;;;22.10;92.30;;;;;;5031112;28;20905;-66
2022/05/24 06:05:10;;;;;;;3.43;3.20;;;22.10;92.20;;;;;;5031217;28;20441;-66
2022/05/24 06:07:37;;;;;;;3.33;3.13;;;22.00;92.10;;;;;;5030881;28;20505;-66
2022/05/24 06:10:08;;;;;;;2.93;2.83;;;22.00;92.00;;;;;;5031001;28;20956;-67
2022/05/24 06:12:35;;;;;;;3.27;3.07;;;22.00;91.90;;;;;;5031029;28;20456;-66
2022/05/24 06:15:02;;;;;;;3.80;3.43;;;22.00;91.90;;;;;;5030886;28;20487;-66
2022/05/24 06:17:28;;;;;;;3.40;3.20;;;22.10;91.90;;;;;;5030674;28;20476;-67
2022/05/24 06:19:58;;;;;;;3.83;3.53;;;22.00;91.70;;;;;;5030943;28;20449;-66
2022/05/24 06:22:25;;;;;;;3.33;2.90;;;22.00;91.60;;;;;;5030883;28;20445;-66
2022/05/24 06:24:52;;;;;;;3.77;3.47;;;22.00;91.60;;;;;;5033936;28;20489;-67
2022/05/24 06:27:22;;;;;;;3.00;2.90;;;22.00;91.50;;;;;;5034252;28;20852;-66
2022/05/24 06:29:49;;;;;;;3.07;2.97;;;22.00;91.50;;;;;;5034379;28;20449;-67
2022/05/24 06:32:16;;;;;;;2.80;2.70;;;22.00;91.50;;;;;;5034413;28;20441;-66
2022/05/24 06:34:43;;;;;;;3.00;2.80;;;22.00;91.80;;;;;;5034412;28;20484;-66
2022/05/24 06:37:09;;;;;;;3.00;2.90;;;22.00;91.40;;;;;;5034010;28;20476;-67
2022/05/24 06:39:36;;;;;;;3.30;3.20;;;22.00;91.40;;;;;;5034213;28;20467;-67
2022/05/24 06:42:03;;;;;;;2.90;2.80;;;22.00;91.30;;;;;;5034231;28;20445;-67
2022/05/24 06:44:31;;;;;;;2.83;2.77;;;22.00;91.30;;;;;;5034152;28;20456;-66
2022/05/24 06:46:58;;;;;;;4.20;3.80;;;22.00;91.20;;;;;;5033879;28;20471;-67
2022/05/24 06:49:25;;;;;;;2.70;2.60;;;22.10;91.20;;;;;;5034030;28;20447;-66
2022/05/24 06:51:51;;;;;;;2.90;2.80;;;22.10;91.20;;;;;;5034089;28;20472;-66
2022/05/24 06:54:18;;;;;;;2.80;2.70;;;22.00;91.10;;;;;;5033984;28;20445;-66
2022/05/24 06:56:45;;;;;;;3.30;3.20;;;22.00;91.10;;;;;;5033863;28;20488;-66
2022/05/24 07:04:42;;;;;;;3.27;3.13;;;22.00;91.00;;;;;;5033981;28;20567;-66
2022/05/24 07:07:09;;;;;;;3.40;3.30;;;22.00;91.00;;;;;;5033437;28;20472;-66
2022/05/24 07:09:37;;;;;;;2.40;2.40;;;22.00;91.00;;;;;;5033785;28;20449;-66
2022/05/24 07:12:05;;;;;;;4.00;3.80;;;22.00;91.10;;;;;;5033764;28;20857;-66
2022/05/24 07:14:34;;;;;;;2.83;2.70;;;22.00;91.10;;;;;;5033594;28;20456;-66
2022/05/24 07:17:02;;;;;;;3.60;3.50;;;22.00;91.10;;;;;;5033305;28;20472;-66
2022/05/24 07:19:30;;;;;;;2.80;2.70;;;22.00;91.00;;;;;;5033556;28;20453;-66
2022/05/24 07:21:57;;;;;;;2.80;2.70;;;22.00;91.00;;;;;;5033454;28;20456;-66
2022/05/24 07:24:23;;;;;;;2.80;2.70;;;22.00;91.00;;;;;;5033471;28;20449;-66
2022/05/24 07:26:51;;;;;;;2.80;2.70;;;22.00;91.00;;;;;;5033104;28;20475;-66
2022/05/24 07:29:18;;;;;;;3.90;3.60;;;22.00;91.10;;;;;;5033270;28;20544;-66
2022/05/24 07:31:45;;;;;;;3.00;2.90;;;22.00;91.00;;;;;;5033261;28;20441;-67
2022/05/24 07:34:13;;;;;;;3.10;3.00;;;22.00;91.00;;;;;;5033415;28;20440;-66
2022/05/24 07:36:39;;;;;;;2.90;2.77;;;21.90;91.10;;;;;;5032617;28;20481;-66
2022/05/24 07:39:06;;;;;;;3.00;2.90;;;21.90;91.00;;;;;;5033011;28;20452;-67
2022/05/24 07:47:01;;;;;;;3.10;3.00;;;21.90;91.00;;;;;;5032852;28;20445;-66
2022/05/24 07:49:29;;;;;;;3.40;3.10;;;21.90;91.00;;;;;;5032848;28;20447;-66
2022/05/24 07:51:56;;;;;;;3.50;3.30;;;21.80;90.90;;;;;;5033021;28;20528;-66
2022/05/24 07:54:23;;;;;;;3.57;3.30;;;21.80;90.90;;;;;;5032932;28;20452;-67
2022/05/24 07:56:50;;;;;;;5.50;5.10;;;21.70;90.90;;;;;;5032494;28;20492;-67
2022/05/24 07:59:17;;;;;;;3.30;3.20;;;21.70;90.90;;;;;;5032732;28;20452;-66
2022/05/24 08:01:45;;;;;;;3.63;3.53;;;21.80;91.00;;;;;;5032816;28;20865;-66
2022/05/24 08:04:11;;;;;;;3.00;2.90;;;21.80;90.70;;;;;;5032786;28;20536;-66
2022/05/24 08:06:39;;;;;;;3.57;3.40;;;21.80;90.70;;;;;;5032512;28;20469;-67
2022/05/24 08:09:07;;;;;;;3.40;3.30;;;21.70;90.30;;;;;;5032313;28;20449;-67
2022/05/24 08:11:34;;;;;;;3.20;3.10;;;21.70;90.20;;;;;;5032536;28;20445;-66
2022/05/24 08:14:02;;;;;;;3.13;3.03;;;21.80;90.30;;;;;;5032540;28;20785;-66
2022/05/24 08:16:29;;;;;;;4.50;3.90;;;21.70;90.10;;;;;;5032272;28;20492;-66
2022/05/24 08:18:58;;;;;;;3.70;3.50;;;21.70;89.80;;;;;;5032246;28;20939;-66
2022/05/24 08:21:25;;;;;;;4.43;4.23;;;21.70;89.90;;;;;;5032343;28;20823;-66
2022/05/24 08:23:53;;;;;;;3.73;3.53;;;21.70;89.80;;;;;;5032390;28;20448;-66
2022/05/24 08:26:20;;;;;;;3.10;3.00;;;21.70;89.70;;;;;;5032161;28;20480;-66
2022/05/24 08:28:47;;;;;;;3.80;3.50;;;21.70;89.30;;;;;;5031940;28;20444;-66
2022/05/24 08:31:15;;;;;;;3.37;3.27;;;21.70;89.90;;;;;;5032242;28;20452;-66
2022/05/24 08:33:43;;;;;;;2.93;2.83;;;21.70;88.90;;;;;;5032207;28;20441;-66
2022/05/24 08:36:10;;;;;;;3.47;3.37;;;21.60;88.10;;;;;;5031951;28;20856;-66
2022/05/24 08:38:38;;;;;;;3.17;2.97;;;21.70;88.20;;;;;;5031832;28;20449;-66
2022/05/24 08:41:11;;;;;;;3.17;3.17;;;21.60;87.30;;;;;;5032013;28;20448;-66
2022/05/24 08:48:22;;;;;;;3.50;3.20;;;21.70;87.30;;;;;;5032009;28;20452;-66
2022/05/24 08:49:38;;;;;;;3.27;3.17;;;21.60;86.20;;;;;;5031797;28;20432;-67
2022/05/24 08:52:08;;;;;;;3.00;2.90;;;21.60;86.00;;;;;;5031911;28;20456;-66
2022/05/24 08:54:39;;;;;;;3.90;3.60;;;21.60;85.40;;;;;;5032135;28;20808;-66
2022/05/24 08:57:11;;;;;;;3.10;3.10;;;21.70;85.60;;;;;;5031483;28;20491;-66
2022/05/24 08:59:44;;;;;;;3.00;2.90;;;21.60;84.50;;;;;;5031734;28;20445;-66
2022/05/24 09:02:12;;;;;;;3.00;2.90;;;21.60;84.40;;;;;;5031737;28;20460;-66
2022/05/24 09:04:38;;;;;;;2.90;2.80;;;21.60;84.70;;;;;;5031644;28;20453;-66
2022/05/24 09:07:15;;;;;;;2.60;2.60;;;21.60;84.70;;;;;;5031391;28;20495;-66
2022/05/24 09:09:54;;;;;;;3.03;2.90;;;21.60;84.80;;;;;;5031609;28;20452;-67
2022/05/24 09:12:31;;;;;;;2.70;2.60;;;21.60;84.00;;;;;;5031631;28;20952;-66
2022/05/24 09:15:09;;;;;;;3.00;2.90;;;21.60;83.90;;;;;;5031811;28;20453;-67
2022/05/24 09:17:47;;;;;;;2.50;2.40;;;21.60;83.80;;;;;;5031359;28;20472;-66
2022/05/24 09:20:29;;;;;;;3.13;3.13;;;21.60;83.50;;;;;;5031522;28;20932;-66
2022/05/24 09:23:00;;;;;;;3.43;3.33;;;21.60;83.90;;;;;;5031575;28;20450;-66
2022/05/24 09:25:27;;;;;;;3.30;3.10;;;21.60;83.00;;;;;;5031441;28;20455;-66
2022/05/24 09:27:56;;;;;;;3.00;2.90;;;21.50;82.50;;;;;;5031058;28;20480;-66
2022/05/24 09:30:27;;;;;;;2.93;2.73;;;21.60;83.00;;;;;;5031540;28;20821;-66
2022/05/24 09:33:14;;;;;;;2.80;2.70;;;21.60;83.00;;;;;;5031424;28;20503;-66
2022/05/24 09:35:42;;;;;;;2.90;2.90;;;21.60;82.20;;;;;;5031132;28;20485;-66
2022/05/24 09:38:13;;;;;;;2.97;2.87;;;21.60;82.00;;;;;;5031084;28;20453;-66
2022/05/24 09:40:50;;;;;;;2.70;2.60;;;21.60;81.60;;;;;;5031380;28;20453;-66
2022/05/24 09:43:26;;;;;;;2.40;2.40;;;21.50;81.00;;;;;;5031338;28;21001;-66
2022/05/24 09:45:57;;;;;;;3.17;3.13;;;21.60;81.30;;;;;;5031323;28;20445;-66
2022/05/24 09:48:26;;;;;;;3.07;2.97;;;21.60;81.10;;;;;;5031046;28;20468;-66
2022/05/24 09:50:54;;;;;;;2.80;2.80;;;21.50;81.20;;;;;;5031310;28;20445;-66
2022/05/24 09:53:24;;;;;;;3.00;2.90;;;21.50;80.90;;;;;;5031243;28;20449;-66
2022/05/24 09:55:54;;;;;;;3.13;2.93;;;21.50;80.90;;;;;;5031003;28;21061;-66
2022/05/24 09:58:28;;;;;;;2.67;2.60;;;21.50;80.50;;;;;;5031841;28;20535;-67
2022/05/24 10:00:58;;;;;;;2.90;2.80;;;21.50;80.90;;;;;;5035027;28;20451;-66
2022/05/24 10:03:29;;;;;;;3.00;2.90;;;21.50;80.90;;;;;;5034935;28;20963;-66
2022/05/24 10:06:20;;;;;;;4.90;3.30;;;21.50;80.20;;;;;;5034968;28;20452;-66
2022/05/24 10:08:50;;;;;;;3.47;3.37;;;21.50;80.10;;;;;;5034697;28;20452;-67
2022/05/24 10:11:25;;;;;;;3.27;3.03;;;21.50;79.90;;;;;;5034826;28;20452;-66
2022/05/24 10:14:05;;;;;;;2.60;2.60;;;21.50;79.40;;;;;;5034860;28;20502;-66
2022/05/24 10:16:36;;;;;;;2.90;2.80;;;21.50;79.80;;;;;;5034535;28;20480;-67
2022/05/24 10:19:31;;;;;;;2.80;2.70;;;21.60;79.40;;;;;;5034542;28;20452;-66
2022/05/24 10:22:07;;;;;;;3.87;3.67;;;21.60;79.60;;;;;;5034609;28;20441;-66
2022/05/24 10:24:47;;;;;;;3.40;3.30;;;21.60;79.60;;;;;;5034564;28;20449;-66
2022/05/24 10:27:21;;;;;;;3.53;3.40;;;21.60;79.10;;;;;;5034774;28;20480;-66
2022/05/24 10:29:56;;;;;;;2.83;2.77;;;21.50;78.40;;;;;;5034539;28;20967;-66
2022/05/24 10:38:20;;;;;;;3.40;3.30;;;21.60;78.70;;;;;;5034453;28;20444;-67
2022/05/24 10:40:59;;;;;;;3.10;3.00;;;21.60;78.70;;;;;;5034223;28;20443;-66
2022/05/24 10:43:55;;;;;;;3.90;3.70;;;21.60;78.70;;;;;;5034281;28;20452;-66
2022/05/24 10:46:31;;;;;;;5.53;3.20;;;21.50;78.20;;;;;;5034181;28;20456;-66
2022/05/24 10:49:05;;;;;;;3.00;2.97;;;21.50;78.00;;;;;;5033979;28;20452;-66
2022/05/24 10:51:37;;;;;;;2.80;2.80;;;21.50;78.10;;;;;;5034194;28;20451;-67
2022/05/24 10:54:10;;;;;;;3.10;3.10;;;21.50;77.90;;;;;;5034085;28;20452;-66
2022/05/24 10:56:44;;;;;;;3.13;3.10;;;21.50;77.50;;;;;;5033829;28;20477;-66
2022/05/24 10:59:20;;;;;;;3.10;3.00;;;21.50;77.30;;;;;;5034165;28;20453;-66
2022/05/24 11:01:53;;;;;;;2.83;2.83;;;21.50;76.90;;;;;;5033845;28;20510;-66
2022/05/24 11:04:26;;;;;;;3.13;3.10;;;21.50;76.40;;;;;;5033994;28;20445;-66
2022/05/24 11:07:00;;;;;;;3.03;2.87;;;21.50;75.50;;;;;;5033613;28;20457;-66
2022/05/24 11:09:32;;;;;;;3.30;3.20;;;21.50;74.90;;;;;;5033381;28;20445;-67
2022/05/24 11:12:04;;;;;;;3.13;3.03;;;21.50;75.10;;;;;;5033536;28;20830;-66
2022/05/24 11:14:37;;;;;;;2.87;2.87;;;21.50;75.20;;;;;;5033762;28;20936;-66
2022/05/24 11:17:05;;;;;;;2.77;2.77;;;21.60;75.40;;;;;;5033330;28;21002;-66
2022/05/24 11:19:36;;;;;;;3.00;3.00;;;21.60;75.60;;;;;;5033541;28;20874;-66
2022/05/24 11:22:09;;;;;;;3.13;3.03;;;21.60;75.10;;;;;;5033631;28;20527;-66
2022/05/24 11:24:56;;;;;;;3.63;3.53;;;21.60;75.00;;;;;;5033504;28;20963;-66
2022/05/24 11:27:30;;;;;;;2.80;2.70;;;21.60;74.80;;;;;;5033235;28;20477;-67
2022/05/24 11:30:00;;;;;;;2.80;2.80;;;21.60;75.20;;;;;;5033436;28;20757;-66
2022/05/24 11:32:35;;;;;;;3.20;3.00;;;21.60;75.10;;;;;;5033382;28;20540;-66
2022/05/24 11:35:07;;;;;;;2.73;2.73;;;21.60;75.30;;;;;;5033337;28;20444;-66
2022/05/24 11:37:36;;;;;;;3.17;2.63;;;21.60;75.50;;;;;;5032987;28;20495;-66
2022/05/24 11:40:39;;;;;;;3.27;3.17;;;21.60;75.30;;;;;;5033247;28;20445;-66
2022/05/24 11:43:08;;;;;;;3.10;3.00;;;21.60;74.90;;;;;;5033242;28;20449;-66
2022/05/24 11:46:01;;;;;;;2.70;2.70;;;21.60;74.80;;;;;;5033037;28;20452;-66
2022/05/24 11:48:47;;;;;;;3.03;2.93;;;21.60;74.70;;;;;;5032869;28;20502;-66
2022/05/24 11:51:41;;;;;;;2.90;2.80;;;21.60;74.50;;;;;;5032994;28;20507;-66
2022/05/24 11:54:42;;;;;;;3.10;3.00;;;21.60;74.90;;;;;;5032880;28;20451;-66
2022/05/24 11:57:27;;;;;;;2.80;2.70;;;21.70;74.80;;;;;;5026239;28;20489;-66
2022/05/24 11:59:54;;;;;;;2.90;2.80;;;21.60;74.50;;;;;;5032794;28;20437;-66
2022/05/24 12:09:10;;;;;;;3.40;3.20;;;21.60;74.10;;;;;;5032434;28;20788;-66
2022/05/24 12:11:37;;;;;;;3.57;3.33;;;21.70;74.20;;;;;;5032555;28;20445;-66
2022/05/24 12:14:33;;;;;;;2.97;2.97;;;21.70;73.90;;;;;;5032571;28;20453;-66
2022/05/24 12:17:13;;;;;;;3.20;3.10;;;21.70;73.70;;;;;;5032238;28;20489;-66
2022/05/24 12:19:49;;;;;;;3.10;3.00;;;21.70;73.90;;;;;;5032426;28;20449;-66
2022/05/24 12:22:18;;;;;;;2.97;2.90;;;21.70;72.70;;;;;;5032226;28;20440;-66
2022/05/24 12:24:51;;;;;;;2.90;2.90;;;21.70;71.50;;;;;;5032281;28;20567;-66
2022/05/24 12:27:48;;;;;;;3.63;3.53;;;21.70;72.00;;;;;;5032020;28;20473;-66
2022/05/24 12:30:41;;;;;;;3.20;3.00;;;21.60;71.50;;;;;;5032174;28;20451;-66
2022/05/24 12:33:34;;;;;;;3.13;2.87;;;21.70;71.90;;;;;;5023729;28;20512;-66
2022/05/24 12:36:19;;;;;;;3.20;3.10;;;21.70;71.80;;;;;;5032061;28;20445;-66
2022/05/24 12:38:51;;;;;;;3.90;3.60;;;21.70;71.20;;;;;;5031921;28;20441;-66
2022/05/24 12:41:25;;;;;;;2.77;2.70;;;21.70;71.30;;;;;;5032157;28;20526;-66
2022/05/24 12:43:57;;;;;;;3.13;3.00;;;21.70;70.80;;;;;;5031987;28;20520;-66
2022/05/24 12:46:27;;;;;;;2.63;2.53;;;21.70;70.60;;;;;;5032029;28;20467;-66
2022/05/24 12:49:04;;;;;;;3.50;3.20;;;21.70;71.20;;;;;;5031683;28;20440;-66
2022/05/24 12:51:31;;;;;;;2.90;2.80;;;21.80;71.10;;;;;;5031921;28;20447;-66
2022/05/24 12:54:11;;;;;;;3.03;2.93;;;21.70;70.70;;;;;;5032026;28;20448;-66
2022/05/24 12:56:38;;;;;;;3.27;3.07;;;21.80;71.10;;;;;;5032014;28;20488;-66
2022/05/24 12:59:11;;;;;;;3.10;2.90;;;21.80;70.10;;;;;;5031767;28;20457;-66
2022/05/24 13:01:41;;;;;;;3.20;3.10;;;21.80;70.00;;;;;;5031967;28;20445;-66
2022/05/24 13:04:13;;;;;;;2.93;2.83;;;21.80;69.70;;;;;;5031602;28;20445;-66
2022/05/24 13:06:42;;;;;;;3.00;2.90;;;21.80;69.60;;;;;;5031699;28;20468;-66
2022/05/24 13:09:21;;;;;;;2.87;2.70;;;21.80;69.90;;;;;;5031432;28;20441;-66
2022/05/24 13:11:51;;;;;;;2.77;2.67;;;21.80;69.80;;;;;;5031534;28;20817;-66
2022/05/24 13:14:47;;;;;;;2.80;2.80;;;21.80;70.10;;;;;;5031665;28;20445;-66
2022/05/24 13:17:17;;;;;;;3.30;3.20;;;21.80;69.20;;;;;;5031290;28;20487;-66
2022/05/24 13:19:52;;;;;;;2.50;2.50;;;21.90;69.10;;;;;;5031461;28;20825;-67
2022/05/24 13:22:19;;;;;;;2.70;2.70;;;21.90;69.20;;;;;;5031575;28;20452;-67
2022/05/24 13:24:58;;;;;;;2.73;2.73;;;21.90;68.70;;;;;;5031415;28;20449;-67
2022/05/24 13:27:25;;;;;;;2.50;2.50;;;21.90;68.80;;;;;;5031281;28;20469;-66
2022/05/24 13:35:32;;;;;;;2.50;2.50;;;21.90;67.60;;;;;;5024861;28;20433;-67
2022/05/24 13:38:00;;;;;;;2.50;2.50;;;21.90;68.40;;;;;;5035096;28;20492;-67
2022/05/24 13:40:40;;;;;;;2.70;2.50;;;21.90;67.10;;;;;;5035392;28;20449;-66
2022/05/24 13:43:08;;;;;;;3.10;3.00;;;21.90;66.10;;;;;;5035347;28;20477;-67
2022/05/24 13:45:36;;;;;;;2.90;2.77;;;21.90;66.60;;;;;;5033283;28;20452;-63
2022/05/24 13:48:23;;;;;;;2.57;2.47;;;21.90;66.90;;;;;;5033790;28;20548;-64
2022/05/24 13:50:49;;;;;;;2.57;2.47;;;21.90;64.60;;;;;;5035231;28;20448;-64
2022/05/24 13:53:30;;;;;;;2.40;2.40;;;21.90;63.70;;;;;;5035174;28;20445;-66
2022/05/24 13:56:02;;;;;;;3.13;3.03;;;21.90;62.00;;;;;;5035088;28;20509;-63
2022/05/24 13:58:33;;;;;;;2.87;2.60;;;21.90;61.40;;;;;;5034587;28;20480;-64
2022/05/24 14:01:03;;;;;;;2.03;2.03;;;21.90;61.10;;;;;;5035048;28;20818;-63